createdAt,value
2022-08-07T00:02:41.500Z,56.33
2022-08-07T00:06:51.532Z,56.29
2022-08-07T00:10:57.559Z,56.30
2022-08-07T00:15:01.830Z,56.72
2022-08-07T00:19:05.662Z,56.64
2022-08-07T00:23:09.008Z,56.74
2022-08-07T00:27:13.593Z,56.76
2022-08-07T00:31:19.034Z,56.76
2022-08-07T00:35:23.032Z,56.97
2022-08-07T00:39:26.538Z,56.89
2022-08-07T00:44:01.617Z,56.85
2022-08-07T00:48:09.587Z,56.97
2022-08-07T00:52:14.509Z,57.09
2022-08-07T00:56:20.900Z,57.23
2022-08-07T01:00:26.119Z,57.18
2022-08-07T01:04:30.325Z,56.87
2022-08-07T01:08:36.072Z,57.03
2022-08-07T01:12:53.949Z,56.74
2022-08-07T01:17:04.186Z,57.32
2022-08-07T01:21:22.855Z,57.03
2022-08-07T01:25:53.830Z,57.13
2022-08-07T01:29:56.029Z,57.14
2022-08-07T01:34:00.188Z,57.21
2022-08-07T01:38:10.900Z,57.42
2022-08-07T01:42:38.748Z,57.49
2022-08-07T01:46:41.856Z,57.16
2022-08-07T01:50:50.389Z,57.13
2022-08-07T01:54:58.994Z,56.82
2022-08-07T01:59:09.167Z,56.80
2022-08-07T02:03:31.986Z,56.66
2022-08-07T02:07:51.789Z,56.56
2022-08-07T02:12:17.697Z,56.62
2022-08-07T02:16:28.726Z,56.80
2022-08-07T02:20:38.158Z,56.61
2022-08-07T02:24:46.605Z,56.55
2022-08-07T02:28:54.408Z,56.65
2022-08-07T02:33:09.282Z,56.47
2022-08-07T02:37:16.677Z,56.79
2022-08-07T02:41:21.690Z,56.59
2022-08-07T02:46:00.180Z,56.53
2022-08-07T02:49:58.806Z,56.06
2022-08-07T02:54:10.617Z,55.97
2022-08-07T02:58:21.999Z,56.21
2022-08-07T03:02:33.840Z,56.23
2022-08-07T03:06:38.969Z,56.37
2022-08-07T03:10:46.730Z,56.34
2022-08-07T03:14:56.344Z,56.36
2022-08-07T03:19:02.184Z,56.53
2022-08-07T03:23:18.911Z,56.20
2022-08-07T03:27:30.120Z,56.26
2022-08-07T03:31:43.443Z,56.34
2022-08-07T03:35:52.553Z,56.27
2022-08-07T03:40:15.309Z,56.21
2022-08-07T03:44:31.911Z,56.29
2022-08-07T03:48:45.557Z,56.39
2022-08-07T03:53:07.508Z,56.33
2022-08-07T03:58:33.840Z,56.40
2022-08-07T04:01:45.221Z,56.33
2022-08-07T04:05:50.689Z,56.47
2022-08-07T04:09:59.687Z,56.42
2022-08-07T04:14:10.159Z,56.46
2022-08-07T04:18:59.573Z,56.20
2022-08-07T04:23:01.301Z,56.00
2022-08-07T04:27:20.757Z,56.17
2022-08-07T04:32:02.160Z,56.10
2022-08-07T04:35:56.148Z,56.13
2022-08-07T04:40:05.211Z,55.99
2022-08-07T04:44:18.243Z,56.13
2022-08-07T04:48:31.535Z,56.19
2022-08-07T04:52:51.113Z,56.25
2022-08-07T04:58:16.823Z,56.42
2022-08-07T05:01:41.648Z,56.38
2022-08-07T05:05:57.145Z,56.21
2022-08-07T05:10:07.813Z,55.92
2022-08-07T05:14:52.898Z,56.03
2022-08-07T05:18:54.060Z,56.44
2022-08-07T05:23:02.772Z,56.04
2022-08-07T05:27:14.461Z,56.18
2022-08-07T05:31:38.513Z,56.16
2022-08-07T05:35:50.737Z,55.97
2022-08-07T05:40:14.188Z,55.97
2022-08-07T05:44:29.342Z,56.25
2022-08-07T05:48:36.600Z,56.03
2022-08-07T05:53:01.565Z,56.18
2022-08-07T05:57:07.314Z,55.90
2022-08-07T06:01:13.320Z,55.94
2022-08-07T06:05:28.137Z,56.32
2022-08-07T06:10:03.774Z,56.29
2022-08-07T06:14:12.924Z,56.44
2022-08-07T06:18:28.033Z,56.29
2022-08-07T06:22:39.044Z,56.23
2022-08-07T06:27:07.948Z,55.85
2022-08-07T06:31:11.918Z,55.60
2022-08-07T06:35:18.090Z,55.49
2022-08-07T06:40:16.246Z,55.97
2022-08-07T06:43:59.417Z,55.82
2022-08-07T06:48:09.405Z,55.90
2022-08-07T06:52:31.727Z,55.69
2022-08-07T06:56:50.715Z,55.69
2022-08-07T07:01:01.285Z,55.52
2022-08-07T07:05:12.602Z,55.55
2022-08-07T07:09:24.260Z,55.18
2022-08-07T07:13:43.614Z,54.96
2022-08-07T07:18:11.203Z,54.42
2022-08-07T07:22:36.117Z,53.82
2022-08-07T07:26:49.672Z,53.86
2022-08-07T07:31:01.500Z,53.49
2022-08-07T07:35:11.315Z,53.38
2022-08-07T07:39:16.494Z,52.73
2022-08-07T07:43:27.700Z,53.16
2022-08-07T07:47:51.961Z,53.01
2022-08-07T07:51:59.884Z,53.38
2022-08-07T07:56:04.250Z,52.79
2022-08-07T08:00:09.523Z,52.74
2022-08-07T08:04:18.478Z,52.94
2022-08-07T08:08:35.037Z,52.70
2022-08-07T08:12:52.279Z,52.62
2022-08-07T08:17:56.389Z,53.05
2022-08-07T08:22:02.587Z,53.26
2022-08-07T08:26:23.395Z,53.05
2022-08-07T08:30:30.219Z,52.91
2022-08-07T08:34:36.762Z,52.47
2022-08-07T08:38:43.160Z,52.97
2022-08-07T08:42:55.823Z,52.40
2022-08-07T08:47:09.815Z,52.17
2022-08-07T08:51:49.552Z,51.97
2022-08-07T08:55:59.243Z,52.05
2022-08-07T09:00:09.054Z,52.09
2022-08-07T09:04:25.953Z,52.26
2022-08-07T09:08:42.144Z,51.94
2022-08-07T09:12:58.303Z,51.74
2022-08-07T09:17:19.121Z,51.09
2022-08-07T09:22:09.747Z,51.62
2022-08-07T09:26:12.636Z,52.05
2022-08-07T09:30:25.447Z,51.67
2022-08-07T09:34:53.909Z,51.07
2022-08-07T09:39:18.260Z,51.33
2022-08-07T09:44:06.247Z,51.16
2022-08-07T09:48:25.151Z,50.92
2022-08-07T09:52:41.903Z,50.83
2022-08-07T09:57:27.992Z,50.33
2022-08-07T10:01:51.692Z,50.74
2022-08-07T10:06:24.526Z,50.33
2022-08-07T10:11:16.402Z,50.02
2022-08-07T10:15:44.528Z,50.04
2022-08-07T10:20:02.061Z,49.50
2022-08-07T10:24:38.142Z,50.15
2022-08-07T10:29:00.019Z,50.20
2022-08-07T10:34:04.999Z,49.56
2022-08-07T10:38:21.245Z,48.81
2022-08-07T10:42:36.383Z,49.28
2022-08-07T10:46:48.883Z,47.81
2022-08-07T10:50:57.302Z,47.84
2022-08-07T10:55:26.619Z,48.34
2022-08-07T10:59:52.972Z,47.64
2022-08-07T11:04:17.030Z,48.09
2022-08-07T11:08:40.830Z,47.61
2022-08-07T11:12:49.725Z,46.82
2022-08-07T11:17:12.214Z,46.41
2022-08-07T11:21:32.092Z,46.03
2022-08-07T11:25:48.198Z,46.38
2022-08-07T11:30:18.709Z,46.05
2022-08-07T11:34:32.435Z,45.68
2022-08-07T11:38:50.629Z,45.34
2022-08-07T11:43:00.874Z,44.92
2022-08-07T11:47:19.032Z,45.47
2022-08-07T11:51:44.692Z,45.91
2022-08-07T11:56:25.335Z,44.73
2022-08-07T12:00:39.301Z,44.83
2022-08-07T12:05:00.981Z,45.02
2022-08-07T12:09:16.476Z,44.60
2022-08-07T12:13:37.102Z,44.61
2022-08-07T12:17:59.432Z,44.73
2022-08-07T12:22:37.310Z,45.11
2022-08-07T12:26:46.238Z,44.65
2022-08-07T12:30:57.305Z,45.08
2022-08-07T12:35:05.599Z,44.59
2022-08-07T12:39:44.830Z,45.38
2022-08-07T12:44:02.703Z,45.64
2022-08-07T12:48:13.187Z,45.59
2022-08-07T12:52:46.106Z,45.32
2022-08-07T12:56:54.882Z,44.41
2022-08-07T13:01:08.057Z,44.57
2022-08-07T13:06:03.742Z,44.89
2022-08-07T13:10:37.627Z,44.97
2022-08-07T13:14:51.152Z,44.68
2022-08-07T13:19:11.473Z,44.51
2022-08-07T13:24:00.788Z,44.78
2022-08-07T13:28:11.704Z,44.01
2022-08-07T13:32:32.691Z,44.80
2022-08-07T13:36:46.315Z,44.48
2022-08-07T13:41:02.445Z,44.34
2022-08-07T13:45:20.851Z,43.01
2022-08-07T13:50:34.507Z,43.46
2022-08-07T13:54:03.626Z,43.10
2022-08-07T13:58:31.430Z,42.95
2022-08-07T14:02:49.154Z,43.13
2022-08-07T14:06:55.797Z,43.33
2022-08-07T14:11:15.470Z,43.73
2022-08-07T14:15:31.752Z,43.58
2022-08-07T14:20:39.814Z,42.98
2022-08-07T14:24:27.655Z,43.18
2022-08-07T14:28:57.479Z,43.49
2022-08-07T14:33:04.663Z,42.87
2022-08-07T14:37:16.667Z,43.04
2022-08-07T14:41:34.108Z,42.79
2022-08-07T14:50:20.634Z,42.59
2022-08-07T14:54:31.324Z,42.89
2022-08-07T14:58:42.631Z,42.06
2022-08-07T15:02:47.494Z,41.49
2022-08-07T15:07:03.227Z,42.28
2022-08-07T15:11:53.317Z,42.22
2022-08-07T15:16:01.064Z,42.13
2022-08-07T15:25:13.686Z,42.48
2022-08-07T15:38:17.443Z,43.37
2022-08-07T15:42:51.891Z,43.34
2022-08-07T15:47:03.565Z,43.18
2022-08-07T15:51:16.941Z,43.55
2022-08-07T15:55:23.220Z,43.92
2022-08-07T15:59:47.874Z,43.86
2022-08-07T16:03:57.312Z,43.44
2022-08-07T16:08:30.207Z,44.08
2022-08-07T16:12:39.110Z,43.89
2022-08-07T16:17:15.416Z,43.92
2022-08-07T16:22:01.322Z,44.02
2022-08-07T16:25:56.704Z,43.90
2022-08-07T16:30:30.995Z,43.90
2022-08-07T16:34:48.193Z,43.98
2022-08-07T16:39:13.273Z,44.45
2022-08-07T16:44:03.929Z,44.29
2022-08-07T16:48:58.430Z,44.19
2022-08-07T16:54:02.532Z,44.27
2022-08-07T16:58:03.691Z,44.72
2022-08-07T17:02:52.476Z,44.79
2022-08-07T17:07:02.894Z,44.94
2022-08-07T17:11:14.273Z,45.18
2022-08-07T17:15:21.962Z,45.32
2022-08-07T17:20:01.548Z,45.28
2022-08-07T17:24:23.622Z,45.18
2022-08-07T17:28:38.244Z,45.77
2022-08-07T17:32:53.725Z,45.20
2022-08-07T17:37:09.818Z,45.94
2022-08-07T17:42:04.580Z,46.64
2022-08-07T17:45:55.575Z,47.01
2022-08-07T17:50:01.436Z,48.11
2022-08-07T17:54:14.958Z,49.53
2022-08-07T17:58:46.342Z,50.67
2022-08-07T18:02:56.730Z,52.54
2022-08-07T18:07:20.095Z,52.50
2022-08-07T18:12:07.938Z,54.00
2022-08-07T18:16:04.708Z,54.35
2022-08-07T18:21:03.433Z,55.08
2022-08-07T18:24:43.259Z,56.03
2022-08-07T18:29:03.925Z,57.04
2022-08-07T18:33:32.613Z,57.05
2022-08-07T18:38:55.183Z,57.25
2022-08-07T18:42:28.806Z,58.72
2022-08-07T18:46:43.110Z,58.42
2022-08-07T18:51:11.637Z,59.15
2022-08-07T18:55:41.845Z,59.88
2022-08-07T19:00:32.877Z,60.69
2022-08-07T19:04:57.668Z,61.82
2022-08-07T19:09:55.388Z,62.23
2022-08-07T19:13:56.467Z,62.46
2022-08-07T19:18:12.991Z,62.77
2022-08-07T19:22:31.334Z,62.88
2022-08-07T19:27:09.121Z,63.57
2022-08-07T19:31:43.626Z,64.04
2022-08-07T19:35:38.499Z,64.48
2022-08-07T19:39:57.590Z,64.81
2022-08-07T19:44:21.275Z,64.99
2022-08-07T19:48:42.130Z,64.88
2022-08-07T19:52:58.353Z,64.23
2022-08-07T19:58:02.300Z,63.34
2022-08-07T20:01:56.246Z,62.91
2022-08-07T20:06:00.558Z,62.19
2022-08-07T20:10:35.702Z,62.46
2022-08-07T20:14:36.631Z,63.30
2022-08-07T20:18:58.771Z,63.43
2022-08-07T20:23:23.172Z,64.02
2022-08-07T20:27:46.247Z,63.91
2022-08-07T20:31:50.849Z,64.44
2022-08-07T20:36:03.408Z,64.49
2022-08-07T20:40:32.165Z,64.49
2022-08-07T20:44:38.699Z,64.85
2022-08-07T20:49:54.636Z,64.87
2022-08-07T20:53:13.491Z,65.09
2022-08-07T20:57:22.119Z,65.39
2022-08-07T21:01:29.710Z,65.31
2022-08-07T21:05:56.354Z,65.35
2022-08-07T21:10:03.235Z,65.56
2022-08-07T21:14:31.640Z,64.89
2022-08-07T21:18:41.011Z,64.90
2022-08-07T21:22:53.483Z,64.91
2022-08-07T21:27:02.044Z,65.25
2022-08-07T21:31:16.247Z,64.83
2022-08-07T21:36:00.207Z,64.47
2022-08-07T21:40:03.682Z,64.64
2022-08-07T21:44:28.436Z,64.00
2022-08-07T21:48:43.859Z,63.75
2022-08-07T21:53:07.776Z,63.08
2022-08-07T21:57:39.652Z,63.29
2022-08-07T22:02:11.024Z,62.84
2022-08-07T22:06:31.005Z,62.80
2022-08-07T22:10:35.744Z,62.37
2022-08-07T22:15:00.115Z,62.65
2022-08-07T22:19:09.564Z,62.15
2022-08-07T22:23:23.615Z,62.62
2022-08-07T22:27:51.220Z,62.18
2022-08-07T22:32:06.397Z,61.87
2022-08-07T22:36:18.592Z,62.27
2022-08-07T22:40:30.785Z,62.44
2022-08-07T22:44:36.884Z,62.26
2022-08-07T22:49:07.761Z,61.90
2022-08-07T22:54:08.089Z,61.60
2022-08-07T22:58:28.106Z,61.21
2022-08-07T23:02:38.575Z,60.96
2022-08-07T23:06:54.921Z,60.62
2022-08-07T23:11:17.167Z,60.51
2022-08-07T23:16:06.726Z,60.16
2022-08-07T23:20:15.051Z,59.66
2022-08-07T23:24:30.027Z,59.43
2022-08-07T23:28:54.462Z,58.87
2022-08-07T23:34:20.671Z,58.81
2022-08-07T23:38:01.685Z,59.01
2022-08-07T23:42:21.877Z,59.43
2022-08-07T23:46:57.661Z,58.97
2022-08-07T23:52:58.300Z,59.12
2022-08-07T23:55:53.168Z,59.06
